Time;durP1;ratioP1;P1;durP2;ratioP2;P2;SDS_P1;SDS_P2;PMS_P1;PMS_P2;Temp;Humidity;BMP_temperature;BMP_pressure;BME280_temperature;BME280_humidity;BME280_pressure;Samples;Min_cycle;Max_cycle;Signal;HPM_P1;HPM_P2
2024/03/20 06:01:50;;;;;;;10.40;5.60;;;7.40;95.40;;;;;;4204653;23;20063;-82
2024/03/20 06:03:52;;;;;;;10.02;5.65;;;7.40;95.30;;;;;;4069754;29;20059;-81
2024/03/20 06:05:54;;;;;;;10.40;5.97;;;7.50;95.30;;;;;;4069801;29;20076;-81
2024/03/20 06:07:55;;;;;;;9.23;6.00;;;7.60;95.40;;;;;;4069748;29;20111;-80
2024/03/20 06:09:57;;;;;;;31.92;18.38;;;7.50;95.40;;;;;;4069615;29;20478;-80
2024/03/20 06:11:59;;;;;;;24.70;14.70;;;7.60;95.30;;;;;;4069712;29;20056;-80
2024/03/20 06:14:00;;;;;;;30.30;16.83;;;7.60;95.30;;;;;;4069704;29;20052;-79
2024/03/20 06:16:02;;;;;;;19.60;11.98;;;7.60;95.30;;;;;;4069668;29;20104;-82
2024/03/20 06:18:05;;;;;;;15.40;8.52;;;7.60;95.50;;;;;;4069499;29;20052;-81
2024/03/20 06:20:08;;;;;;;13.70;7.90;;;7.70;95.50;;;;;;4069589;29;20470;-82
2024/03/20 06:22:09;;;;;;;13.55;8.10;;;7.70;95.40;;;;;;4069488;29;20086;-81
2024/03/20 06:24:11;;;;;;;15.55;7.68;;;7.70;95.10;;;;;;4069703;29;20051;-81
2024/03/20 06:26:12;;;;;;;13.07;7.35;;;7.70;96.00;;;;;;4068844;29;20052;-81
2024/03/20 06:28:14;;;;;;;10.35;6.95;;;7.70;95.60;;;;;;4069569;29;20124;-83
2024/03/20 06:30:15;;;;;;;11.55;6.75;;;7.70;96.10;;;;;;4069639;29;20135;-81
2024/03/20 06:32:16;;;;;;;12.93;7.07;;;7.70;96.20;;;;;;4069510;29;20076;-82
2024/03/20 06:34:19;;;;;;;10.85;6.05;;;7.80;96.00;;;;;;4069438;29;20504;-81
2024/03/20 06:36:20;;;;;;;10.27;5.93;;;7.80;95.60;;;;;;4069480;29;20104;-81
2024/03/20 06:38:21;;;;;;;10.40;6.85;;;7.90;94.80;;;;;;4069328;29;20048;-81
2024/03/20 06:40:27;;;;;;;11.60;6.75;;;7.90;94.30;;;;;;4069436;29;20387;-80
2024/03/20 06:42:28;;;;;;;;;;;7.90;94.60;;;;;;4069912;29;20490;-82
2024/03/20 06:44:30;;;;;;;15.48;8.18;;;7.90;95.20;;;;;;4070637;29;19923;-83
2024/03/20 06:46:31;;;;;;;18.00;7.65;;;7.90;95.00;;;;;;4072116;29;20052;-80
2024/03/20 06:48:33;;;;;;;14.88;7.53;;;7.90;95.60;;;;;;4070615;29;20183;-81
2024/03/20 06:50:36;;;;;;;11.00;6.60;;;7.90;95.20;;;;;;4071840;29;20044;-82
2024/03/20 06:52:39;;;;;;;14.02;6.85;;;8.00;95.20;;;;;;4072843;29;20076;-81
2024/03/20 06:54:43;;;;;;;17.23;7.93;;;8.00;95.00;;;;;;4071673;29;20055;-84
2024/03/20 06:56:48;;;;;;;11.50;7.38;;;8.00;94.90;;;;;;4069583;29;20505;-81
2024/03/20 06:58:48;;;;;;;15.17;7.17;;;8.00;94.80;;;;;;4069337;29;20116;-82
2024/03/20 07:00:50;;;;;;;14.57;8.07;;;7.90;95.20;;;;;;4075852;29;20308;-81
2024/03/20 07:02:53;;;;;;;11.27;6.75;;;8.00;95.20;;;;;;4071533;29;20067;-82
2024/03/20 07:04:54;;;;;;;13.20;7.30;;;8.00;95.10;;;;;;4069298;29;20108;-81
2024/03/20 07:06:58;;;;;;;12.52;7.15;;;8.00;95.10;;;;;;4069176;29;20059;-81
2024/03/20 07:08:59;;;;;;;11.20;6.78;;;8.00;95.00;;;;;;4069372;29;20048;-81
2024/03/20 07:11:04;;;;;;;11.07;6.47;;;8.00;95.20;;;;;;4070154;29;20052;-81
2024/03/20 07:13:06;;;;;;;12.20;7.23;;;8.10;95.10;;;;;;4067765;29;20080;-80
2024/03/20 07:15:09;;;;;;;10.45;6.78;;;8.10;95.00;;;;;;4068882;29;20131;-81
2024/03/20 07:17:09;;;;;;;12.60;7.47;;;8.20;95.10;;;;;;4068905;29;20447;-81
2024/03/20 07:19:12;;;;;;;11.77;7.07;;;8.20;95.10;;;;;;4069258;29;20051;-81
2024/03/20 07:21:13;;;;;;;11.65;6.78;;;8.20;95.10;;;;;;4068444;29;20054;-81
2024/03/20 07:23:16;;;;;;;11.43;6.95;;;8.20;94.90;;;;;;4070491;29;20075;-80
2024/03/20 07:25:17;;;;;;;11.35;7.13;;;8.30;94.90;;;;;;4071114;29;20051;-81
2024/03/20 07:27:20;;;;;;;11.13;6.70;;;8.30;94.80;;;;;;4070226;29;20114;-82
2024/03/20 07:29:21;;;;;;;13.40;7.32;;;8.30;94.80;;;;;;4069217;29;20056;-82
2024/03/20 07:31:23;;;;;;;12.68;6.68;;;8.30;94.80;;;;;;4068924;29;20103;-83
2024/03/20 07:33:24;;;;;;;12.68;7.18;;;8.40;94.70;;;;;;4068923;29;20082;-82
2024/03/20 07:35:29;;;;;;;18.42;7.20;;;8.40;94.70;;;;;;4068708;29;20474;-82
2024/03/20 07:37:30;;;;;;;12.50;7.13;;;8.40;94.70;;;;;;4069885;29;20411;-81
2024/03/20 07:39:33;;;;;;;12.02;7.00;;;8.50;94.80;;;;;;4071958;29;20048;-82
2024/03/20 07:41:34;;;;;;;15.60;7.22;;;8.50;94.90;;;;;;4070676;29;20048;-80
2024/03/20 07:43:39;;;;;;;12.35;6.38;;;8.50;95.20;;;;;;4072260;29;20087;-83
2024/03/20 07:45:40;;;;;;;9.32;6.07;;;8.50;95.40;;;;;;4072755;29;20056;-81
2024/03/20 07:47:42;;;;;;;7.90;5.63;;;8.60;95.60;;;;;;4072944;29;20052;-83
2024/03/20 07:49:45;;;;;;;9.65;5.75;;;8.60;95.60;;;;;;4072659;29;20080;-81
2024/03/20 07:51:47;;;;;;;9.13;5.53;;;8.70;95.70;;;;;;4072474;29;20048;-82
2024/03/20 07:53:48;;;;;;;9.05;5.93;;;8.70;95.50;;;;;;4073535;29;20062;-81
2024/03/20 07:55:51;;;;;;;9.15;5.65;;;8.80;95.60;;;;;;4072889;29;20483;-82
2024/03/20 07:57:53;;;;;;;12.07;6.38;;;8.80;95.30;;;;;;4072388;29;20181;-81
2024/03/20 07:59:53;;;;;;;11.60;6.10;;;8.90;95.40;;;;;;4073142;29;20048;-81
2024/03/20 08:01:55;;;;;;;10.73;6.28;;;8.90;95.60;;;;;;4072367;29;20107;-82
2024/03/20 08:03:56;;;;;;;10.20;6.15;;;8.90;95.50;;;;;;4072866;29;20104;-82
2024/03/20 08:05:59;;;;;;;9.68;5.93;;;8.90;96.10;;;;;;4071775;29;20052;-81
2024/03/20 08:08:00;;;;;;;9.57;6.50;;;9.00;96.10;;;;;;4071977;29;20044;-81
2024/03/20 08:10:01;;;;;;;13.93;6.38;;;8.90;96.40;;;;;;4073046;29;20052;-81
2024/03/20 08:12:04;;;;;;;9.95;5.70;;;8.90;96.40;;;;;;4071784;29;20048;-82
2024/03/20 08:14:08;;;;;;;10.20;5.80;;;9.00;96.30;;;;;;4071796;29;20051;-80
2024/03/20 08:16:09;;;;;;;7.90;5.60;;;9.10;96.30;;;;;;4071805;29;20059;-81
2024/03/20 08:18:11;;;;;;;7.72;5.03;;;9.20;96.10;;;;;;4076023;29;20056;-81
2024/03/20 08:20:13;;;;;;;7.80;5.25;;;9.30;95.70;;;;;;4076251;29;20507;-80
2024/03/20 08:22:15;;;;;;;9.18;5.15;;;9.40;95.80;;;;;;4071769;29;20048;-81
2024/03/20 08:24:16;;;;;;;9.48;5.38;;;9.50;95.60;;;;;;4071422;29;20048;-80
2024/03/20 08:26:18;;;;;;;8.18;4.70;;;9.50;95.30;;;;;;4071251;29;20099;-80
2024/03/20 08:28:21;;;;;;;8.57;5.03;;;9.60;95.30;;;;;;4073215;29;20048;-82
2024/03/20 08:30:23;;;;;;;8.15;5.15;;;9.70;95.20;;;;;;4073552;29;20103;-82
2024/03/20 08:32:24;;;;;;;9.43;5.55;;;9.80;95.30;;;;;;4072854;29;20052;-81
2024/03/20 08:34:27;;;;;;;8.25;5.65;;;9.80;95.10;;;;;;4072234;29;20092;-81
2024/03/20 08:36:29;;;;;;;11.95;6.22;;;9.90;95.00;;;;;;4071340;29;20044;-81
2024/03/20 08:38:31;;;;;;;9.15;5.22;;;10.00;95.00;;;;;;4071229;29;20079;-80
2024/03/20 08:40:32;;;;;;;8.80;5.25;;;10.10;94.90;;;;;;4071028;29;20052;-80
2024/03/20 08:42:34;;;;;;;9.73;5.32;;;10.10;94.60;;;;;;4070980;29;20080;-80
2024/03/20 08:44:36;;;;;;;7.25;5.05;;;10.20;94.40;;;;;;4071591;29;20084;-80
2024/03/20 08:46:41;;;;;;;9.32;6.15;;;10.30;94.30;;;;;;4075865;29;20498;-80
2024/03/20 08:48:42;;;;;;;10.43;5.53;;;10.40;94.40;;;;;;4077765;29;20044;-80
2024/03/20 08:50:45;;;;;;;9.32;5.40;;;10.50;94.20;;;;;;4076503;29;20323;-79
2024/03/20 08:52:46;;;;;;;8.80;5.38;;;10.50;94.00;;;;;;4075440;29;20048;-79
2024/03/20 08:54:49;;;;;;;7.60;5.13;;;10.60;93.80;;;;;;4076252;29;20118;-79
2024/03/20 08:56:50;;;;;;;10.32;4.90;;;10.60;93.30;;;;;;4078118;29;20052;-80
2024/03/20 08:58:53;;;;;;;8.25;5.20;;;10.70;93.10;;;;;;4084289;29;20059;-79
2024/03/20 09:00:57;;;;;;;8.43;4.90;;;10.80;92.90;;;;;;4082955;29;20060;-80
2024/03/20 09:02:59;;;;;;;8.25;5.10;;;10.80;93.20;;;;;;4081255;29;20116;-81
2024/03/20 09:05:00;;;;;;;8.88;5.40;;;10.90;92.70;;;;;;4096030;29;20047;-80
2024/03/20 09:07:04;;;;;;;6.57;4.75;;;11.00;92.90;;;;;;4082177;29;20107;-80
2024/03/20 09:09:06;;;;;;;9.88;5.30;;;11.00;92.50;;;;;;4082957;29;20139;-81
2024/03/20 09:11:08;;;;;;;7.82;5.15;;;11.10;92.30;;;;;;4084280;29;20059;-82
2024/03/20 09:13:09;;;;;;;7.82;4.80;;;11.10;92.10;;;;;;4068902;29;20499;-81
2024/03/20 09:15:12;;;;;;;8.05;5.22;;;11.20;92.20;;;;;;4082185;29;20091;-80
2024/03/20 09:17:17;;;;;;;9.63;5.95;;;11.20;92.20;;;;;;4082719;29;20060;-84
2024/03/20 09:19:19;;;;;;;10.80;5.68;;;11.30;92.10;;;;;;4079607;29;20059;-81
2024/03/20 09:21:20;;;;;;;10.27;5.47;;;11.30;91.70;;;;;;4084438;29;20080;-83
2024/03/20 09:23:23;;;;;;;9.30;5.68;;;11.30;91.60;;;;;;4083476;29;20052;-77
2024/03/20 09:25:24;;;;;;;8.23;5.35;;;11.30;91.20;;;;;;4082711;29;20055;-78
2024/03/20 09:27:34;;;;;;;8.38;5.53;;;11.40;90.90;;;;;;4082499;29;20052;-81
2024/03/20 09:29:35;;;;;;;7.85;5.00;;;11.40;90.90;;;;;;4082270;29;20169;-81
2024/03/20 09:31:38;;;;;;;7.88;5.03;;;11.50;91.00;;;;;;4082529;29;20081;-81
2024/03/20 09:33:40;;;;;;;9.45;5.57;;;11.50;91.10;;;;;;4083075;29;20108;-82
2024/03/20 09:35:43;;;;;;;7.78;4.90;;;11.60;91.20;;;;;;4084092;29;20040;-82
2024/03/20 09:37:44;;;;;;;9.98;5.45;;;11.60;91.00;;;;;;4084054;29;20062;-81
2024/03/20 09:39:45;;;;;;;7.93;5.20;;;11.70;91.10;;;;;;4083010;29;20075;-81
2024/03/20 09:41:47;;;;;;;8.13;4.78;;;11.70;90.60;;;;;;4079907;29;20048;-79
2024/03/20 09:43:52;;;;;;;8.20;5.03;;;11.80;90.70;;;;;;4082318;29;20513;-80
2024/03/20 09:45:54;;;;;;;8.95;4.95;;;11.80;90.60;;;;;;4079352;29;20060;-78
2024/03/20 09:47:58;;;;;;;7.78;4.65;;;11.90;90.50;;;;;;4076029;29;20056;-77
2024/03/20 09:50:00;;;;;;;8.43;5.20;;;11.90;90.00;;;;;;4072744;29;20091;-77
2024/03/20 09:52:03;;;;;;;12.95;5.13;;;12.00;89.30;;;;;;4071536;29;20063;-77
2024/03/20 09:54:05;;;;;;;8.52;4.40;;;12.00;88.70;;;;;;4074487;29;20055;-81
2024/03/20 09:56:10;;;;;;;8.40;4.57;;;12.10;89.50;;;;;;4075054;29;20059;-77
2024/03/20 09:58:13;;;;;;;9.60;4.90;;;12.20;89.50;;;;;;4071809;29;20100;-78
2024/03/20 10:00:18;;;;;;;9.30;4.97;;;12.20;89.40;;;;;;4071618;29;20067;-77
2024/03/20 10:02:20;;;;;;;8.02;4.90;;;12.30;88.40;;;;;;4113677;28;20058;-80
2024/03/20 10:04:27;;;;;;;7.80;4.47;;;12.30;88.80;;;;;;4121647;28;20071;-77
2024/03/20 10:06:31;;;;;;;8.40;5.00;;;12.40;88.90;;;;;;4122162;28;20054;-77
2024/03/20 10:08:37;;;;;;;7.07;4.30;;;12.50;89.00;;;;;;4122747;28;20057;-77
2024/03/20 10:10:42;;;;;;;10.05;4.70;;;12.60;88.70;;;;;;4119498;28;20057;-78
2024/03/20 10:12:47;;;;;;;7.82;4.53;;;12.70;88.10;;;;;;4117772;28;20050;-78
2024/03/20 10:14:48;;;;;;;9.05;4.60;;;12.80;88.20;;;;;;4117606;28;20078;-78
2024/03/20 10:16:50;;;;;;;7.72;4.20;;;12.80;87.10;;;;;;4119992;28;20047;-78
2024/03/20 10:18:51;;;;;;;12.82;4.47;;;12.90;87.50;;;;;;4125389;28;20121;-78
2024/03/20 10:20:53;;;;;;;8.05;4.38;;;13.00;87.40;;;;;;4119115;28;20058;-79
2024/03/20 10:22:55;;;;;;;8.85;4.50;;;13.10;86.90;;;;;;4117253;28;20111;-78
2024/03/20 10:24:57;;;;;;;10.07;4.43;;;13.20;87.10;;;;;;4101916;28;20520;-79
2024/03/20 10:26:58;;;;;;;8.10;4.68;;;13.30;87.10;;;;;;4113515;28;20074;-80
2024/03/20 10:29:04;;;;;;;7.88;4.47;;;13.40;87.30;;;;;;4119670;28;20620;-80
2024/03/20 10:31:08;;;;;;;7.10;4.18;;;13.40;87.20;;;;;;4122013;28;20520;-81
2024/03/20 10:33:19;;;;;;;7.32;4.50;;;13.50;87.80;;;;;;4120368;28;20058;-78
2024/03/20 10:35:23;;;;;;;8.63;4.57;;;13.60;87.70;;;;;;4122535;28;20061;-79
2024/03/20 10:37:26;;;;;;;7.05;4.32;;;13.60;86.30;;;;;;4123213;28;20108;-79
2024/03/20 10:39:29;;;;;;;7.93;4.20;;;13.70;86.00;;;;;;4123052;28;20055;-79
2024/03/20 10:41:32;;;;;;;7.72;4.30;;;13.70;85.20;;;;;;4121033;28;20130;-80
2024/03/20 10:43:36;;;;;;;6.70;3.67;;;13.80;85.30;;;;;;4122765;28;20476;-79
2024/03/20 10:45:37;;;;;;;7.18;3.83;;;13.90;85.60;;;;;;4124420;28;20452;-79
2024/03/20 10:47:40;;;;;;;8.02;4.05;;;14.00;85.30;;;;;;4120803;28;20082;-78
2024/03/20 10:49:42;;;;;;;9.68;4.30;;;14.00;84.20;;;;;;4122819;28;20053;-78
2024/03/20 10:51:45;;;;;;;9.65;4.30;;;14.10;82.10;;;;;;4124587;28;20114;-79
2024/03/20 10:53:46;;;;;;;6.15;3.70;;;14.10;82.70;;;;;;4117976;28;20477;-81
2024/03/20 10:55:52;;;;;;;9.57;4.18;;;14.20;83.30;;;;;;4119595;28;20054;-77
2024/03/20 10:57:55;;;;;;;10.18;4.32;;;14.30;82.00;;;;;;4116901;28;20113;-79
2024/03/20 11:00:00;;;;;;;7.13;4.00;;;14.40;80.60;;;;;;4115933;28;20836;-78
2024/03/20 11:02:04;;;;;;;7.93;3.85;;;14.40;81.30;;;;;;4114547;28;20078;-80
2024/03/20 11:04:05;;;;;;;11.32;4.20;;;14.50;80.80;;;;;;4112740;28;20050;-79
2024/03/20 11:06:43;;;;;;;7.43;3.90;;;14.60;80.90;;;;;;4115590;28;20058;-80
2024/03/20 11:08:54;;;;;;;15.07;4.80;;;14.70;78.70;;;;;;4114770;28;20054;-80
2024/03/20 11:10:56;;;;;;;8.07;3.90;;;14.80;78.20;;;;;;4114697;28;20066;-79
2024/03/20 11:12:58;;;;;;;8.77;3.75;;;14.80;76.70;;;;;;4113911;28;20053;-79
2024/03/20 11:15:04;;;;;;;6.90;3.83;;;14.90;75.20;;;;;;4114625;28;20053;-79
2024/03/20 11:17:05;;;;;;;9.38;3.40;;;15.00;74.30;;;;;;4114546;28;20055;-78
2024/03/20 11:19:09;;;;;;;7.43;3.78;;;15.10;75.10;;;;;;4114422;28;20043;-78
2024/03/20 11:21:11;;;;;;;6.93;3.78;;;15.30;75.70;;;;;;4115703;28;20042;-77
2024/03/20 11:23:26;;;;;;;7.88;4.07;;;15.40;75.50;;;;;;4114525;28;20047;-79
2024/03/20 11:25:30;;;;;;;7.18;3.83;;;15.50;73.90;;;;;;4113275;28;20086;-78
2024/03/20 11:27:34;;;;;;;8.52;3.60;;;15.60;73.20;;;;;;4098533;29;20101;-76
2024/03/20 11:29:35;;;;;;;7.75;3.40;;;15.70;71.50;;;;;;4098132;29;20122;-76
2024/03/20 11:31:38;;;;;;;7.47;4.13;;;15.70;71.30;;;;;;4099543;29;20461;-75
2024/03/20 11:33:42;;;;;;;7.32;3.35;;;15.80;70.00;;;;;;4105664;28;20110;-76
2024/03/20 11:35:48;;;;;;;6.38;3.00;;;15.90;69.70;;;;;;4115483;28;20055;-78
2024/03/20 11:37:49;;;;;;;;;;;16.10;69.30;;;;;;4114678;28;20057;-77
2024/03/20 11:39:51;;;;;;;7.63;2.80;;;16.10;67.90;;;;;;4114237;28;19926;-79
2024/03/20 11:41:52;;;;;;;6.75;2.65;;;16.20;67.70;;;;;;4114329;28;20090;-79
2024/03/20 11:43:55;;;;;;;6.07;2.97;;;16.30;67.70;;;;;;4113931;28;20377;-79
2024/03/20 11:45:56;;;;;;;6.25;2.45;;;16.40;65.90;;;;;;4106448;28;20531;-78
2024/03/20 11:47:58;;;;;;;5.88;2.78;;;16.50;65.30;;;;;;4115235;28;20050;-77
2024/03/20 11:49:59;;;;;;;6.35;2.70;;;16.50;64.50;;;;;;4114798;28;20051;-77
2024/03/20 11:52:03;;;;;;;4.70;2.30;;;16.50;65.30;;;;;;4124388;28;20451;-78
2024/03/20 11:54:05;;;;;;;5.35;2.08;;;16.70;63.90;;;;;;4132005;28;20381;-78
2024/03/20 11:56:07;;;;;;;5.93;2.13;;;17.20;67.20;;;;;;4134848;28;20046;-78
2024/03/20 11:58:12;;;;;;;6.80;2.30;;;17.20;65.10;;;;;;4131613;28;20047;-76
2024/03/20 12:00:17;;;;;;;6.82;2.00;;;17.30;64.80;;;;;;4130213;28;20050;-78
2024/03/20 12:02:20;;;;;;;7.10;2.30;;;17.40;63.60;;;;;;4130040;28;20531;-77
2024/03/20 12:04:22;;;;;;;5.65;2.30;;;17.50;63.00;;;;;;4119027;28;20054;-77
2024/03/20 12:06:25;;;;;;;4.75;2.35;;;17.60;63.40;;;;;;4113859;28;20411;-77
2024/03/20 12:08:27;;;;;;;4.43;1.80;;;17.60;60.50;;;;;;4114325;28;20049;-75
2024/03/20 12:10:34;;;;;;;5.05;2.10;;;17.70;59.00;;;;;;4113797;28;20461;-78
2024/03/20 12:12:36;;;;;;;4.72;2.08;;;17.70;58.80;;;;;;4113478;28;20130;-77
2024/03/20 12:14:38;;;;;;;4.30;1.77;;;17.80;58.60;;;;;;4113445;28;20051;-79
2024/03/20 12:16:41;;;;;;;6.80;2.30;;;17.90;58.80;;;;;;4113682;28;20137;-80
2024/03/20 12:18:42;;;;;;;5.43;2.10;;;18.00;57.70;;;;;;4113183;28;20134;-77
2024/03/20 12:20:44;;;;;;;4.50;2.00;;;18.00;57.60;;;;;;4128114;28;20141;-79
2024/03/20 12:22:45;;;;;;;4.65;1.88;;;18.10;58.00;;;;;;4129659;28;20058;-78
2024/03/20 12:24:47;;;;;;;3.88;1.90;;;18.20;58.30;;;;;;4115185;28;20054;-77
2024/03/20 12:26:48;;;;;;;5.35;1.95;;;18.30;58.20;;;;;;4116215;28;20047;-79
2024/03/20 12:28:50;;;;;;;6.43;1.90;;;18.40;56.80;;;;;;4116292;28;20097;-78
2024/03/20 12:30:51;;;;;;;4.80;1.80;;;18.50;55.80;;;;;;4116343;28;20603;-77
2024/03/20 12:32:54;;;;;;;5.82;1.88;;;18.60;54.50;;;;;;4116509;28;20078;-78
2024/03/20 12:34:55;;;;;;;4.20;1.83;;;18.70;54.10;;;;;;4116839;28;20105;-79
2024/03/20 12:36:56;;;;;;;6.28;1.90;;;18.80;54.30;;;;;;4116366;28;20492;-79
2024/03/20 12:38:58;;;;;;;5.38;1.67;;;19.00;54.90;;;;;;4116350;28;20054;-79
2024/03/20 12:40:59;;;;;;;6.57;1.95;;;19.20;54.20;;;;;;4116147;28;20105;-80
2024/03/20 12:43:00;;;;;;;4.45;1.55;;;19.20;54.70;;;;;;4116309;28;20093;-78
2024/03/20 12:45:01;;;;;;;7.07;1.90;;;19.40;54.30;;;;;;4116165;28;20047;-79
2024/03/20 12:47:04;;;;;;;4.43;1.63;;;19.50;52.40;;;;;;4116031;28;20446;-80
2024/03/20 12:49:11;;;;;;;4.03;1.42;;;19.60;52.40;;;;;;4115780;28;20117;-78
2024/03/20 12:51:18;;;;;;;4.13;1.38;;;19.80;51.40;;;;;;4115836;28;20128;-78
2024/03/20 12:53:19;;;;;;;5.68;2.10;;;19.90;51.50;;;;;;4116089;28;20047;-75
2024/03/20 12:55:22;;;;;;;3.30;1.65;;;20.00;51.10;;;;;;4115662;28;20051;-78
2024/03/20 12:57:23;;;;;;;6.45;1.55;;;20.10;48.80;;;;;;4116008;28;20051;-80
2024/03/20 12:59:25;;;;;;;3.72;1.60;;;20.20;48.70;;;;;;4116217;28;20086;-79
2024/03/20 13:01:26;;;;;;;5.93;1.77;;;20.30;47.60;;;;;;4115512;28;20066;-77
2024/03/20 13:03:28;;;;;;;3.85;1.50;;;20.30;49.40;;;;;;4113993;28;20412;-79
2024/03/20 13:05:30;;;;;;;3.15;1.30;;;20.30;48.00;;;;;;4115894;28;20109;-77
2024/03/20 13:07:32;;;;;;;4.40;1.48;;;20.50;49.10;;;;;;4115766;28;20138;-79
2024/03/20 13:09:34;;;;;;;5.30;1.50;;;20.50;49.80;;;;;;4115859;28;20117;-76
2024/03/20 13:11:36;;;;;;;3.35;1.23;;;20.70;48.70;;;;;;4115718;28;20121;-80
2024/03/20 13:13:37;;;;;;;4.30;1.40;;;20.70;48.70;;;;;;4121315;28;20047;-77
2024/03/20 13:15:40;;;;;;;4.50;1.70;;;20.80;49.30;;;;;;4131886;28;20415;-80
2024/03/20 13:17:41;;;;;;;4.85;1.70;;;21.00;50.40;;;;;;4132187;28;20503;-81
2024/03/20 13:19:43;;;;;;;4.28;1.60;;;21.20;49.80;;;;;;4131577;28;20081;-80
2024/03/20 13:21:48;;;;;;;3.85;1.52;;;21.30;50.50;;;;;;4131958;28;20113;-80
2024/03/20 13:23:50;;;;;;;2.75;1.20;;;21.50;48.70;;;;;;4132209;28;20062;-80
2024/03/20 13:25:51;;;;;;;3.47;1.45;;;21.50;47.60;;;;;;4132239;28;20050;-80
2024/03/20 13:27:53;;;;;;;3.75;1.50;;;21.70;48.20;;;;;;4132639;28;20117;-79
2024/03/20 13:29:59;;;;;;;4.25;1.40;;;21.80;45.40;;;;;;4132705;28;20476;-80
2024/03/20 13:32:03;;;;;;;4.18;1.50;;;21.80;45.40;;;;;;4131614;28;20073;-80
2024/03/20 13:34:08;;;;;;;5.80;1.80;;;22.00;46.50;;;;;;4132126;28;20494;-80
2024/03/20 13:36:18;;;;;;;3.95;1.55;;;22.10;46.80;;;;;;4131587;28;20057;-81
2024/03/20 13:38:21;;;;;;;4.43;1.50;;;22.30;47.00;;;;;;4131712;28;20503;-79
2024/03/20 13:40:33;;;;;;;4.13;1.50;;;22.40;46.70;;;;;;4131588;28;20054;-78
2024/03/20 13:42:47;;;;;;;4.60;1.48;;;22.50;45.50;;;;;;4116488;28;20051;-78
2024/03/20 13:44:48;;;;;;;3.67;1.40;;;22.60;46.50;;;;;;4115572;28;20093;-80
2024/03/20 13:46:50;;;;;;;3.78;1.65;;;22.80;44.50;;;;;;4115621;28;20061;-78
2024/03/20 13:48:51;;;;;;;3.92;1.40;;;22.80;43.50;;;;;;4115371;28;20078;-79
2024/03/20 13:50:54;;;;;;;3.00;1.40;;;23.10;45.30;;;;;;4115624;28;20472;-78
2024/03/20 13:52:54;;;;;;;3.65;1.48;;;23.40;43.40;;;;;;4115663;28;20539;-76
2024/03/20 13:54:58;;;;;;;3.33;1.58;;;23.70;42.60;;;;;;4115712;28;20050;-77
2024/03/20 13:56:58;;;;;;;4.10;1.50;;;24.00;43.20;;;;;;4115643;28;20058;-79
2024/03/20 13:59:00;;;;;;;5.15;1.58;;;24.20;40.90;;;;;;4115337;28;20047;-77
2024/03/20 14:01:01;;;;;;;4.30;1.42;;;24.80;41.80;;;;;;4115034;28;20142;-79
2024/03/20 14:03:07;;;;;;;4.57;1.70;;;25.50;38.60;;;;;;4113332;28;20094;-77
2024/03/20 14:05:17;;;;;;;4.70;1.65;;;27.60;36.90;;;;;;4116009;28;20054;-80
2024/03/20 14:07:20;;;;;;;5.78;1.70;;;30.90;31.50;;;;;;4115372;28;20138;-79
2024/03/20 14:09:21;;;;;;;3.20;1.55;;;33.20;28.30;;;;;;4114714;28;20046;-79
2024/03/20 14:11:25;;;;;;;3.55;1.60;;;35.10;26.50;;;;;;4115138;28;20133;-78
2024/03/20 14:13:26;;;;;;;3.88;1.55;;;36.00;24.60;;;;;;4115158;28;20093;-78
2024/03/20 14:15:27;;;;;;;3.53;1.45;;;36.60;24.10;;;;;;4115064;28;20082;-79
2024/03/20 14:17:28;;;;;;;3.40;1.30;;;37.30;23.40;;;;;;4115013;28;20062;-79
2024/03/20 14:19:30;;;;;;;3.33;1.40;;;37.90;22.50;;;;;;4114997;28;20113;-77
2024/03/20 14:21:31;;;;;;;4.63;1.38;;;37.70;22.90;;;;;;4114906;28;20543;-79
2024/03/20 14:23:33;;;;;;;3.35;1.60;;;37.70;22.80;;;;;;4115064;28;20133;-79
2024/03/20 14:25:34;;;;;;;2.90;1.40;;;38.60;22.30;;;;;;4114948;28;20051;-77
2024/03/20 14:27:38;;;;;;;2.92;1.35;;;39.40;21.40;;;;;;4119863;28;20054;-77
2024/03/20 14:29:41;;;;;;;3.13;1.35;;;39.80;20.70;;;;;;4119040;28;20113;-77
2024/03/20 14:31:43;;;;;;;3.47;1.45;;;39.70;20.50;;;;;;4114891;28;20456;-78
2024/03/20 14:33:44;;;;;;;3.15;1.23;;;40.60;20.20;;;;;;4114809;28;20051;-79
2024/03/20 14:35:46;;;;;;;2.58;1.17;;;40.60;20.50;;;;;;4114922;28;20110;-75
2024/03/20 14:37:47;;;;;;;5.38;2.00;;;40.20;20.20;;;;;;4114573;28;20051;-76
2024/03/20 14:39:49;;;;;;;5.57;1.90;;;39.40;20.20;;;;;;4114741;28;20054;-75
2024/03/20 14:41:50;;;;;;;4.28;1.80;;;38.80;20.60;;;;;;4114717;28;20448;-75
2024/03/20 14:43:55;;;;;;;3.47;1.60;;;38.90;21.20;;;;;;4114689;28;20101;-76
2024/03/20 14:45:59;;;;;;;3.67;1.40;;;39.00;20.30;;;;;;4114677;28;20054;-77
2024/03/20 14:48:00;;;;;;;2.88;1.25;;;38.80;20.10;;;;;;4114153;28;20051;-76
2024/03/20 14:50:03;;;;;;;3.17;1.48;;;39.00;21.00;;;;;;4114440;28;20046;-81
2024/03/20 14:52:06;;;;;;;4.55;1.42;;;38.40;20.20;;;;;;4114624;28;20043;-76
2024/03/20 14:54:10;;;;;;;4.07;1.20;;;37.70;20.60;;;;;;4124002;28;20472;-77
2024/03/20 14:56:14;;;;;;;4.30;1.40;;;37.10;21.10;;;;;;4130742;28;20101;-77
2024/03/20 14:58:15;;;;;;;5.60;1.40;;;36.20;21.40;;;;;;4130649;28;20555;-77
2024/03/20 15:00:19;;;;;;;2.85;1.27;;;35.60;22.10;;;;;;4130566;28;20461;-78
2024/03/20 15:02:22;;;;;;;4.93;1.88;;;35.60;22.30;;;;;;4130302;28;20133;-77
2024/03/20 15:04:24;;;;;;;3.80;1.38;;;35.30;21.80;;;;;;4128486;28;20054;-78
2024/03/20 15:06:25;;;;;;;3.97;1.20;;;34.90;23.40;;;;;;4130428;28;20488;-78
2024/03/20 15:08:27;;;;;;;3.95;1.33;;;34.50;22.50;;;;;;4120864;28;20538;-77
2024/03/20 15:10:28;;;;;;;4.32;1.30;;;34.00;22.60;;;;;;4114318;28;20097;-79
2024/03/20 15:12:30;;;;;;;6.53;1.33;;;33.90;22.40;;;;;;4115338;28;20539;-79
2024/03/20 15:14:31;;;;;;;4.55;1.33;;;33.90;23.10;;;;;;4114064;28;20047;-82
2024/03/20 15:16:34;;;;;;;2.90;1.30;;;33.90;23.20;;;;;;4115419;28;20407;-80
2024/03/20 15:18:35;;;;;;;4.05;1.10;;;34.40;22.90;;;;;;4124185;28;20058;-83
2024/03/20 15:20:37;;;;;;;2.80;1.30;;;34.80;22.70;;;;;;4114632;28;20483;-83
2024/03/20 15:22:38;;;;;;;3.72;1.35;;;35.10;21.70;;;;;;4115697;28;20053;-82
2024/03/20 15:24:40;;;;;;;2.92;1.27;;;35.10;21.50;;;;;;4118959;28;20125;-80
2024/03/20 15:26:41;;;;;;;4.65;1.55;;;34.80;21.60;;;;;;4121799;28;20104;-83
2024/03/20 15:28:43;;;;;;;3.10;1.50;;;34.70;22.20;;;;;;4114046;28;20082;-82
2024/03/20 15:30:45;;;;;;;2.72;1.13;;;34.60;21.80;;;;;;4114569;28;20412;-82
2024/03/20 15:32:50;;;;;;;2.35;1.10;;;34.10;21.70;;;;;;4129985;28;20101;-81
2024/03/20 15:34:53;;;;;;;3.65;1.20;;;33.80;22.60;;;;;;4134943;28;20065;-81
2024/03/20 15:36:56;;;;;;;3.30;1.30;;;33.90;23.20;;;;;;4133051;28;20125;-82
2024/03/20 15:39:04;;;;;;;2.67;1.10;;;33.80;23.20;;;;;;4118272;28;20146;-79
2024/03/20 15:41:14;;;;;;;3.17;1.10;;;33.10;23.50;;;;;;4115076;28;20101;-81
2024/03/20 15:43:17;;;;;;;3.30;1.13;;;32.40;23.60;;;;;;4110302;28;20058;-79
2024/03/20 15:45:19;;;;;;;3.40;1.25;;;31.90;24.30;;;;;;4130090;28;20129;-79
2024/03/20 15:47:20;;;;;;;2.65;1.17;;;31.40;24.70;;;;;;4123855;28;20098;-80
2024/03/20 15:49:24;;;;;;;4.03;1.20;;;30.80;25.30;;;;;;4114065;28;20503;-78
2024/03/20 15:51:27;;;;;;;4.05;1.30;;;30.70;26.10;;;;;;4114161;28;20493;-79
2024/03/20 15:53:29;;;;;;;3.38;1.42;;;30.70;27.60;;;;;;4114898;28;20061;-79
2024/03/20 15:55:32;;;;;;;3.22;1.30;;;30.70;27.50;;;;;;4113776;28;20051;-79
2024/03/20 15:57:35;;;;;;;4.53;1.30;;;30.60;27.40;;;;;;4112560;28;20054;-80
2024/03/20 15:59:36;;;;;;;4.10;1.10;;;30.40;26.40;;;;;;4116365;28;20082;-77
2024/03/20 16:01:40;;;;;;;4.20;1.30;;;30.00;26.10;;;;;;4116518;28;20058;-77
2024/03/20 16:03:43;;;;;;;3.28;1.23;;;29.80;26.60;;;;;;4115202;28;20053;-77
2024/03/20 16:05:46;;;;;;;2.80;1.40;;;29.50;26.80;;;;;;4117287;28;20428;-80
2024/03/20 16:07:50;;;;;;;3.97;1.50;;;29.30;27.10;;;;;;4116813;28;20540;-78
2024/03/20 16:09:52;;;;;;;6.20;1.67;;;29.10;26.90;;;;;;4116902;28;20057;-78
2024/03/20 16:11:56;;;;;;;3.47;1.27;;;28.90;27.80;;;;;;4117848;28;20055;-79
2024/03/20 16:13:59;;;;;;;8.43;3.28;;;28.70;27.10;;;;;;4116672;28;20503;-78
2024/03/20 16:16:00;;;;;;;4.03;1.80;;;28.50;27.80;;;;;;4116960;28;20133;-81
2024/03/20 16:18:07;;;;;;;4.20;1.70;;;28.40;27.70;;;;;;4116916;28;20089;-78
2024/03/20 16:20:14;;;;;;;4.78;1.70;;;28.30;28.30;;;;;;4117945;28;20112;-80
2024/03/20 16:22:18;;;;;;;3.55;1.45;;;28.30;28.00;;;;;;4127897;28;20050;-80
2024/03/20 16:24:19;;;;;;;5.88;1.17;;;28.40;28.40;;;;;;4124902;28;20055;-82
2024/03/20 16:26:22;;;;;;;2.80;1.23;;;28.30;28.20;;;;;;4116431;28;20126;-80
2024/03/20 16:28:24;;;;;;;2.90;1.20;;;28.20;28.30;;;;;;4116746;28;20050;-82
2024/03/20 16:30:27;;;;;;;2.58;0.98;;;28.00;28.10;;;;;;4116678;28;20050;-78
2024/03/20 16:32:29;;;;;;;2.97;1.20;;;27.70;28.50;;;;;;4128545;28;20411;-80
2024/03/20 16:34:31;;;;;;;3.00;1.00;;;27.50;29.20;;;;;;4125367;28;20563;-80
2024/03/20 16:36:32;;;;;;;2.42;1.20;;;27.30;28.70;;;;;;4116419;28;20093;-80
2024/03/20 16:38:34;;;;;;;4.10;1.33;;;27.00;28.90;;;;;;4116478;28;20051;-78
2024/03/20 16:40:36;;;;;;;5.38;1.30;;;27.00;29.30;;;;;;4117739;28;20476;-79